Time;durP1;ratioP1;P1;durP2;ratioP2;P2;SDS_P1;SDS_P2;PMS_P1;PMS_P2;Temp;Humidity;BMP_temperature;BMP_pressure;BME280_temperature;BME280_humidity;BME280_pressure;Samples;Min_cycle;Max_cycle;Signal;HPM_P1;HPM_P2
2022/07/24 14:09:19;;;;;;;5.80;3.35;;;;;;;32.61;21.50;99891.03;4460784;26;35157;-83
2022/07/24 14:11:47;;;;;;;6.00;3.20;;;;;;;33.05;21.23;99918.50;4426016;32;35211;-79
2022/07/24 14:14:15;;;;;;;3.90;2.75;;;;;;;32.44;20.05;99910.50;4410800;32;33897;-79
2022/07/24 14:16:42;;;;;;;5.00;3.50;;;;;;;32.29;20.18;99906.66;4433562;32;34011;-80
2022/07/24 14:19:11;;;;;;;3.87;2.45;;;;;;;32.07;20.54;99914.78;4419289;32;33860;-82
2022/07/24 14:21:38;;;;;;;4.03;2.75;;;;;;;32.18;20.21;99911.63;4416669;32;33921;-82
2022/07/24 14:24:07;;;;;;;5.12;3.30;;;;;;;32.11;20.53;99908.34;4426313;32;34081;-78
2022/07/24 14:26:43;;;;;;;5.00;2.92;;;;;;;31.86;21.46;99920.03;4432877;32;33928;-80
2022/07/24 14:29:11;;;;;;;4.93;2.90;;;;;;;32.00;21.42;99911.44;4429202;32;33692;-77
2022/07/24 14:31:39;;;;;;;5.50;2.85;;;;;;;32.35;21.05;99908.22;4409140;32;32493;-83
2022/07/24 14:34:08;;;;;;;5.57;3.10;;;;;;;32.14;21.22;99897.47;4422135;32;32521;-82
2022/07/24 14:36:36;;;;;;;4.53;3.00;;;;;;;32.35;20.86;99900.19;4427566;32;33688;-83
2022/07/24 14:39:03;;;;;;;4.93;3.00;;;;;;;32.63;20.06;99894.50;4417746;32;33668;-82
2022/07/24 14:41:31;;;;;;;7.28;2.87;;;;;;;32.31;20.03;99900.28;4416416;32;33790;-79
2022/07/24 14:43:59;;;;;;;4.53;2.90;;;;;;;31.91;20.35;99906.44;4419902;32;33335;-80
2022/07/24 14:46:33;;;;;;;4.22;2.90;;;;;;;32.28;20.35;99897.75;4429878;32;33678;-77
2022/07/24 14:49:01;;;;;;;4.32;2.50;;;;;;;32.34;20.56;99893.94;4407678;32;33518;-85
2022/07/24 14:51:28;;;;;;;5.32;2.90;;;;;;;32.05;20.92;99887.16;4425132;32;33533;-81
2022/07/24 14:53:56;;;;;;;4.43;3.12;;;;;;;32.27;20.52;99884.44;4422933;32;34239;-78
2022/07/24 14:56:24;;;;;;;6.82;3.42;;;;;;;32.36;20.47;99880.50;4419863;32;34570;-78
2022/07/24 14:58:54;;;;;;;7.22;3.40;;;;;;;32.22;20.77;99873.91;4430218;32;33691;-80
2022/07/24 15:01:22;;;;;;;5.97;3.35;;;;;;;31.67;21.35;99894.97;4433422;32;33377;-82
2022/07/24 15:03:49;;;;;;;5.93;3.03;;;;;;;32.43;20.15;99881.94;4432734;32;33696;-79
2022/07/24 15:06:18;;;;;;;4.65;2.70;;;;;;;32.89;20.19;99874.53;4426028;32;33344;-83
2022/07/24 15:08:46;;;;;;;3.53;2.17;;;;;;;32.76;20.10;99878.72;4418695;32;33926;-75
2022/07/24 15:11:14;;;;;;;5.45;2.80;;;;;;;32.24;20.72;99877.41;4424330;32;34421;-86
2022/07/24 15:13:41;;;;;;;4.95;2.75;;;;;;;32.70;20.55;99879.84;4408152;32;33060;-79
2022/07/24 15:16:09;;;;;;;5.35;2.72;;;;;;;32.22;20.30;99876.59;4416827;32;33580;-80
2022/07/24 15:18:37;;;;;;;5.12;3.25;;;;;;;32.14;20.38;99878.72;4427916;32;33299;-80
2022/07/24 15:21:05;;;;;;;4.68;2.80;;;;;;;32.49;20.04;99871.81;4425843;32;33514;-83
2022/07/24 15:23:33;;;;;;;5.30;2.80;;;;;;;32.68;20.19;99869.22;4426612;32;33642;-79
2022/07/24 15:26:00;;;;;;;4.70;2.83;;;;;;;32.76;19.77;99878.72;4429149;32;34396;-81
2022/07/24 15:28:28;;;;;;;4.60;2.70;;;;;;;31.99;20.79;99871.31;4413667;32;33796;-82
2022/07/24 15:30:57;;;;;;;5.40;2.50;;;;;;;32.29;20.11;99870.00;4437103;32;34553;-84
2022/07/24 15:33:24;;;;;;;7.53;4.53;;;;;;;32.24;20.21;99869.34;4435677;32;33028;-85
2022/07/24 15:35:52;;;;;;;4.78;2.70;;;;;;;32.16;20.74;99860.75;4434262;32;34078;-81
2022/07/24 15:38:20;;;;;;;4.57;2.72;;;;;;;32.20;20.52;99857.03;4400353;32;32467;-85
2022/07/24 15:40:48;;;;;;;4.10;2.20;;;;;;;32.12;20.92;99861.84;4426177;32;34490;-80
2022/07/24 15:43:17;;;;;;;4.15;2.50;;;;;;;32.44;20.20;99854.19;4431828;32;33291;-79
2022/07/24 15:45:45;;;;;;;3.58;2.58;;;;;;;32.21;20.81;99858.75;4432597;32;34677;-82
2022/07/24 15:48:12;;;;;;;4.85;2.37;;;;;;;32.21;20.43;99853.41;4419503;32;32282;-81
2022/07/24 15:50:40;;;;;;;4.32;2.50;;;;;;;32.68;19.89;99850.44;4417805;32;34544;-79
2022/07/24 15:53:08;;;;;;;5.72;2.60;;;;;;;32.45;20.71;99851.47;4425054;32;33357;-78
2022/07/24 15:55:35;;;;;;;5.30;2.30;;;;;;;32.78;21.15;99855.38;4433502;32;33612;-80
2022/07/24 15:58:03;;;;;;;4.65;2.40;;;;;;;32.46;20.20;99846.97;4424681;32;34658;-76
2022/07/24 16:00:31;;;;;;;3.60;2.15;;;;;;;32.39;20.12;99862.44;4433815;32;32944;-82
2022/07/24 16:02:59;;;;;;;7.78;2.58;;;;;;;32.33;20.18;99860.88;4429777;32;33338;-77
2022/07/24 16:05:27;;;;;;;5.50;2.40;;;;;;;32.09;20.12;99852.12;4426510;32;34491;-81
2022/07/24 16:07:54;;;;;;;4.12;2.17;;;;;;;32.24;20.55;99855.97;4419202;32;33560;-80
2022/07/24 16:10:22;;;;;;;4.90;2.47;;;;;;;32.59;20.40;99848.19;4431964;32;34242;-77
2022/07/24 16:12:50;;;;;;;4.05;2.20;;;;;;;32.49;20.21;99854.84;4430743;32;33462;-83
2022/07/24 16:15:17;;;;;;;4.35;2.10;;;;;;;32.42;20.09;99845.34;4431805;32;34715;-82
2022/07/24 16:17:46;;;;;;;4.93;2.20;;;;;;;31.97;20.53;99857.09;4428118;32;34065;-84
2022/07/24 16:20:14;;;;;;;3.85;2.17;;;;;;;31.40;21.21;99854.09;4424201;32;33683;-78
2022/07/24 16:22:42;;;;;;;4.03;2.40;;;;;;;31.60;20.84;99853.28;4419509;32;33087;-80
2022/07/24 16:25:10;;;;;;;3.40;2.00;;;;;;;31.79;20.55;99850.72;4435010;32;33615;-79
2022/07/24 16:27:38;;;;;;;4.65;2.20;;;;;;;32.00;20.28;99848.94;4427732;32;32620;-79
2022/07/24 16:30:06;;;;;;;3.97;2.37;;;;;;;32.01;20.46;99848.91;4428302;32;34503;-83
2022/07/24 16:32:34;;;;;;;3.78;2.30;;;;;;;31.32;20.99;99849.03;4431051;32;33528;-77
2022/07/24 16:35:01;;;;;;;3.42;2.30;;;;;;;31.76;20.59;99854.41;4429996;32;33971;-80
2022/07/24 16:37:29;;;;;;;4.03;2.58;;;;;;;31.50;20.76;99851.00;4431011;32;34577;-80
2022/07/24 16:39:56;;;;;;;4.65;2.40;;;;;;;31.70;20.63;99854.69;4425230;32;33687;-81
2022/07/24 16:42:24;;;;;;;3.92;2.12;;;;;;;31.79;20.58;99848.91;4422157;32;33816;-81
2022/07/24 16:44:51;;;;;;;3.85;2.28;;;;;;;31.41;21.15;99843.31;4412734;32;33956;-80
2022/07/24 16:47:19;;;;;;;4.05;2.40;;;;;;;31.02;21.90;99851.97;4426832;32;33637;-83
2022/07/24 16:49:48;;;;;;;4.37;2.58;;;;;;;31.63;21.24;99853.19;4427948;32;33769;-81
2022/07/24 16:52:16;;;;;;;4.10;2.47;;;;;;;31.82;20.81;99838.09;4432592;32;33458;-79
2022/07/24 16:54:43;;;;;;;6.72;2.40;;;;;;;31.40;21.17;99854.94;4427760;32;34644;-79
2022/07/24 16:57:11;;;;;;;3.50;2.10;;;;;;;31.38;21.63;99850.59;4413077;32;34118;-79
2022/07/24 16:59:38;;;;;;;4.87;2.72;;;;;;;31.51;21.15;99855.44;4426399;32;34477;-81
2022/07/24 17:02:06;;;;;;;4.45;2.17;;;;;;;31.28;21.30;99853.63;4428695;32;33413;-78
2022/07/24 17:04:34;;;;;;;7.28;2.75;;;;;;;31.19;21.22;99842.44;4430749;32;33702;-77
2022/07/24 17:07:01;;;;;;;3.83;2.42;;;;;;;31.15;21.41;99844.34;4434890;32;33946;-79
2022/07/24 17:09:29;;;;;;;4.47;2.37;;;;;;;30.72;22.54;99838.81;4434631;32;33515;-84
2022/07/24 17:11:57;;;;;;;4.70;2.28;;;;;;;31.10;21.87;99852.56;4417825;32;33200;-80
2022/07/24 17:14:27;;;;;;;4.53;2.33;;;;;;;31.01;21.74;99854.72;4430538;32;33841;-84
2022/07/24 17:16:55;;;;;;;4.18;2.03;;;;;;;31.33;20.91;99850.75;4425495;32;33186;-80
2022/07/24 17:19:24;;;;;;;4.87;2.30;;;;;;;31.43;20.66;99845.91;4430947;32;33908;-79
2022/07/24 17:22:17;;;;;;;6.20;2.05;;;;;;;30.83;21.91;99845.56;4431885;32;33505;-82
2022/07/24 17:24:45;;;;;;;5.95;2.45;;;;;;;31.32;21.96;99846.38;4430198;32;33824;-77
2022/07/24 17:27:13;;;;;;;3.37;2.25;;;;;;;31.34;21.63;99852.53;4426597;32;34036;-81
2022/07/24 17:29:46;;;;;;;3.47;2.20;;;;;;;31.33;21.02;99845.41;4413975;32;32769;-82
2022/07/24 17:32:14;;;;;;;3.37;1.90;;;;;;;31.00;21.58;99837.78;4426360;32;32998;-81
2022/07/24 17:34:41;;;;;;;3.53;1.85;;;;;;;30.80;21.48;99851.03;4432304;32;33982;-81
2022/07/24 17:37:09;;;;;;;4.78;2.08;;;;;;;30.89;21.45;99851.59;4427915;32;33568;-78
2022/07/24 17:39:52;;;;;;;8.05;2.42;;;;;;;30.51;21.65;99850.31;4431645;32;34537;-76
2022/07/24 17:42:20;;;;;;;5.15;2.35;;;;;;;30.70;21.58;99846.03;4428202;32;33906;-79
2022/07/24 17:44:49;;;;;;;4.55;2.30;;;;;;;30.63;21.62;99846.31;4427312;32;33911;-81
2022/07/24 17:47:17;;;;;;;5.00;2.12;;;;;;;30.65;21.59;99850.66;4433491;32;33982;-83
2022/07/24 17:49:44;;;;;;;4.82;2.20;;;;;;;30.46;21.81;99853.19;4418301;32;34163;-80
2022/07/24 17:52:12;;;;;;;4.68;2.83;;;;;;;30.54;22.13;99852.91;4432123;32;33222;-78
2022/07/24 17:54:39;;;;;;;5.00;2.10;;;;;;;30.80;21.37;99856.37;4427417;32;34095;-81
2022/07/24 17:57:07;;;;;;;5.75;2.20;;;;;;;30.71;21.55;99858.50;4422668;32;34370;-79
2022/07/24 17:59:35;;;;;;;5.07;2.00;;;;;;;30.92;21.59;99861.28;4432735;32;34444;-79
2022/07/24 18:02:03;;;;;;;4.40;2.00;;;;;;;30.79;21.43;99860.88;4418242;32;33419;-84
2022/07/24 18:04:31;;;;;;;4.07;2.10;;;;;;;30.53;22.01;99867.19;4431726;32;34666;-79
2022/07/24 18:06:59;;;;;;;4.45;2.15;;;;;;;30.62;21.94;99864.16;4402636;32;34285;-80
2022/07/24 18:09:29;;;;;;;3.47;1.65;;;;;;;30.42;22.86;99861.34;4416562;32;33113;-78
2022/07/24 18:11:57;;;;;;;5.70;2.50;;;;;;;30.64;22.39;99873.00;4421096;32;33253;-79
2022/07/24 18:14:25;;;;;;;3.47;1.95;;;;;;;30.46;22.44;99862.97;4430950;32;33958;-79
2022/07/24 18:16:52;;;;;;;5.68;2.20;;;;;;;30.74;21.99;99862.84;4428548;32;34599;-82
2022/07/24 18:19:20;;;;;;;5.32;2.50;;;;;;;30.71;22.03;99878.97;4405620;32;33592;-79
2022/07/24 18:21:48;;;;;;;4.80;2.53;;;;;;;30.77;22.13;99878.75;4431330;32;33406;-80
2022/07/24 18:24:15;;;;;;;5.35;2.05;;;;;;;30.90;22.18;99873.84;4434002;32;34534;-80
2022/07/24 18:26:43;;;;;;;3.45;1.95;;;;;;;30.60;23.01;99881.16;4434997;32;33237;-81
2022/07/24 18:29:11;;;;;;;4.68;2.10;;;;;;;30.74;22.74;99890.44;4435749;32;33273;-81
2022/07/24 18:31:39;;;;;;;4.85;2.40;;;;;;;30.58;22.79;99883.94;4425309;32;33440;-80
2022/07/24 18:34:07;;;;;;;3.90;2.45;;;;;;;30.75;22.57;99886.84;4433920;32;34578;-81
2022/07/24 18:36:36;;;;;;;4.90;2.40;;;;;;;30.62;22.59;99884.66;4434836;32;34126;-81
2022/07/24 18:39:04;;;;;;;5.18;2.12;;;;;;;30.46;22.63;99895.03;4424567;32;33679;-80
2022/07/24 18:41:32;;;;;;;5.47;2.00;;;;;;;30.46;22.76;99895.03;4429552;32;33942;-80
2022/07/24 18:43:59;;;;;;;5.18;2.40;;;;;;;30.42;22.49;99896.09;4424557;32;34249;-80
2022/07/24 18:46:27;;;;;;;4.47;2.40;;;;;;;30.09;23.27;99901.66;4436053;32;34668;-84
2022/07/24 18:48:55;;;;;;;5.35;2.40;;;;;;;30.10;23.02;99900.72;4427856;32;34626;-83
2022/07/24 18:51:22;;;;;;;4.03;2.37;;;;;;;30.10;23.02;99900.72;4435526;32;33832;-82
2022/07/24 18:53:55;;;;;;;3.47;2.22;;;;;;;30.15;22.87;99906.78;4433105;32;33890;-82
2022/07/24 18:56:24;;;;;;;5.78;2.30;;;;;;;29.99;23.56;99912.63;4412838;32;34829;-81
2022/07/24 18:58:51;;;;;;;8.38;2.45;;;;;;;29.64;24.31;99918.25;4427043;32;33926;-79
2022/07/24 19:01:19;;;;;;;5.70;2.30;;;;;;;29.62;24.79;99922.75;4435581;32;33084;-79
2022/07/24 19:03:49;;;;;;;3.40;2.12;;;;;;;29.69;24.05;99919.84;4436603;32;33990;-81
2022/07/24 19:06:16;;;;;;;5.15;2.58;;;;;;;29.30;24.60;99921.94;4427285;32;33422;-80
2022/07/24 19:08:44;;;;;;;6.90;4.18;;;;;;;29.33;25.18;99927.19;4428153;32;34576;-82
2022/07/24 19:11:12;;;;;;;6.82;4.30;;;;;;;29.47;25.05;99924.97;4411050;32;33487;-80
2022/07/24 19:13:40;;;;;;;5.78;2.60;;;;;;;29.50;25.55;99932.03;4415269;32;33864;-82
2022/07/24 19:16:08;;;;;;;5.43;2.90;;;;;;;29.38;24.67;99935.91;4411282;32;34473;-83
2022/07/24 19:18:36;;;;;;;5.87;2.90;;;;;;;29.37;25.00;99944.84;4414891;32;33782;-81
2022/07/24 19:21:04;;;;;;;4.28;2.40;;;;;;;29.23;25.44;99936.41;4418837;32;33288;-80
2022/07/24 19:23:31;;;;;;;5.10;2.53;;;;;;;29.09;25.46;99940.31;4416150;32;34033;-79
2022/07/24 19:26:00;;;;;;;6.18;2.42;;;;;;;28.76;25.56;99942.13;4432666;32;34783;-78
2022/07/24 19:28:27;;;;;;;5.80;2.70;;;;;;;29.23;24.98;99947.09;4434063;32;33982;-78
2022/07/24 19:30:55;;;;;;;4.90;2.75;;;;;;;28.74;25.57;99955.53;4426496;32;31994;-77
2022/07/24 19:33:22;;;;;;;4.47;2.70;;;;;;;27.67;27.13;99958.16;4410334;32;34434;-78
2022/07/24 19:35:50;;;;;;;4.85;2.83;;;;;;;27.85;26.99;99953.28;4425180;32;32930;-78
2022/07/24 19:38:17;;;;;;;4.93;2.92;;;;;;;27.24;27.99;99954.63;4424264;32;33897;-79
2022/07/24 19:40:45;;;;;;;6.35;2.80;;;;;;;26.96;28.16;99957.84;4426206;32;34139;-77
2022/07/24 19:43:13;;;;;;;7.65;2.75;;;;;;;26.88;28.50;99965.09;4414295;32;33994;-80
2022/07/24 19:45:51;;;;;;;6.05;2.58;;;;;;;26.95;28.36;99952.59;4418867;32;33977;-79
2022/07/24 19:48:19;;;;;;;7.00;2.97;;;;;;;26.98;28.47;99958.69;4425072;32;34191;-77
2022/07/24 19:50:46;;;;;;;5.60;2.40;;;;;;;26.85;28.72;99962.53;4427442;32;32993;-79
2022/07/24 19:53:36;;;;;;;4.68;2.80;;;;;;;26.66;28.96;99967.31;4434024;32;34134;-78
2022/07/24 19:56:04;;;;;;;6.40;2.78;;;;;;;27.00;28.69;99961.31;4431962;32;34593;-80
2022/07/24 19:58:31;;;;;;;4.87;2.50;;;;;;;26.96;28.37;99972.91;4427347;32;33569;-79
2022/07/24 20:00:59;;;;;;;5.32;2.83;;;;;;;27.12;28.13;99966.41;4433750;32;32989;-79
2022/07/24 20:03:27;;;;;;;6.37;2.40;;;;;;;26.91;28.85;99967.72;4432029;32;33653;-79
2022/07/24 20:05:55;;;;;;;5.90;3.00;;;;;;;27.57;28.78;99969.00;4432511;32;34288;-80
2022/07/24 20:08:22;;;;;;;7.20;2.85;;;;;;;26.96;29.32;99964.94;4434249;32;33738;-80
2022/07/24 20:10:50;;;;;;;5.72;3.08;;;;;;;27.49;28.93;99970.06;4432252;32;34246;-79
2022/07/24 20:13:17;;;;;;;5.00;2.92;;;;;;;28.19;27.71;99975.59;4436395;32;33843;-79
2022/07/24 20:15:45;;;;;;;8.07;3.08;;;;;;;28.14;27.34;99974.81;4434959;32;33580;-78
2022/07/24 20:18:12;;;;;;;4.55;2.50;;;;;;;28.02;27.67;99976.84;4418433;32;33711;-80
2022/07/24 20:20:40;;;;;;;6.18;2.60;;;;;;;27.40;28.76;99979.16;4432691;32;32464;-80
2022/07/24 20:23:08;;;;;;;4.00;2.50;;;;;;;26.79;29.26;99974.16;4408688;32;32894;-80
2022/07/24 20:25:35;;;;;;;5.00;2.62;;;;;;;26.83;28.84;99978.50;4430392;32;34765;-79
2022/07/24 20:28:03;;;;;;;5.07;2.42;;;;;;;26.05;29.98;99972.72;4428373;32;33906;-79
2022/07/24 20:30:32;;;;;;;3.47;2.17;;;;;;;26.82;28.81;99979.38;4429276;32;32987;-78
2022/07/24 20:32:59;;;;;;;4.62;2.47;;;;;;;27.12;28.57;99977.03;4430432;32;33180;-79
2022/07/24 20:35:27;;;;;;;4.70;3.03;;;;;;;26.32;29.31;99983.78;4429520;32;33710;-79
2022/07/24 20:37:54;;;;;;;5.35;2.90;;;;;;;26.03;30.17;99986.94;4433460;32;34040;-79
2022/07/24 20:40:22;;;;;;;6.53;2.83;;;;;;;26.33;29.64;99990.88;4428740;32;33416;-79
2022/07/24 20:42:50;;;;;;;5.03;3.00;;;;;;;25.85;30.39;99982.75;4430378;32;34601;-79
2022/07/24 20:45:17;;;;;;;5.22;2.80;;;;;;;25.55;30.83;99986.72;4427751;32;33665;-79
2022/07/24 20:47:45;;;;;;;6.50;2.60;;;;;;;25.83;30.58;99990.72;4415221;32;33536;-79
2022/07/24 20:50:17;;;;;;;5.07;2.70;;;;;;;26.01;30.18;99994.91;4432106;32;33322;-79
2022/07/24 20:52:44;;;;;;;4.40;2.90;;;;;;;26.31;30.05;99997.09;4427577;32;33999;-79
2022/07/24 20:55:13;;;;;;;4.97;2.50;;;;;;;26.32;29.84;100002.38;4413569;32;34064;-79
2022/07/24 20:57:42;;;;;;;4.53;2.37;;;;;;;25.41;31.26;99997.50;4431031;32;33862;-78
2022/07/24 21:00:10;;;;;;;4.53;2.65;;;;;;;26.14;30.18;100000.03;4432933;32;34208;-79
2022/07/24 21:02:38;;;;;;;5.75;2.50;;;;;;;25.58;31.99;100000.81;4431966;32;33860;-79
2022/07/24 21:05:05;;;;;;;6.50;2.47;;;;;;;25.49;32.32;99999.13;4432046;32;34536;-78
2022/07/24 21:07:33;;;;;;;4.57;2.30;;;;;;;24.93;33.34;100006.84;4428584;32;34007;-78
2022/07/24 21:10:08;;;;;;;4.05;2.55;;;;;;;24.90;33.50;100006.03;4435073;32;33032;-79
2022/07/24 21:12:37;;;;;;;4.78;2.17;;;;;;;24.57;34.11;100015.16;4429077;32;33757;-78
2022/07/24 21:15:05;;;;;;;3.90;2.40;;;;;;;24.46;33.55;100021.41;4422066;32;33539;-78
2022/07/24 21:17:36;;;;;;;4.95;2.50;;;;;;;24.51;33.83;100024.94;4416064;32;34575;-79
2022/07/24 21:20:03;;;;;;;4.62;2.40;;;;;;;24.37;34.08;100013.53;4431951;32;33347;-79
2022/07/24 21:22:31;;;;;;;5.97;2.55;;;;;;;24.75;33.62;100025.59;4431193;32;33967;-79
2022/07/24 21:24:59;;;;;;;4.30;2.67;;;;;;;24.61;33.59;100025.72;4427135;32;33378;-78
2022/07/24 21:27:26;;;;;;;5.12;2.58;;;;;;;24.73;33.55;100035.31;4432668;32;34652;-78
2022/07/24 21:29:53;;;;;;;5.20;2.45;;;;;;;24.76;33.80;100024.69;4431003;32;33455;-79
2022/07/24 21:32:21;;;;;;;4.90;2.70;;;;;;;24.88;33.78;100029.00;4435498;32;34697;-79
2022/07/24 21:34:49;;;;;;;6.53;2.30;;;;;;;25.16;33.83;100029.56;4432460;32;33998;-80
2022/07/24 21:37:17;;;;;;;5.00;2.25;;;;;;;25.07;34.39;100032.31;4428818;32;33916;-79
2022/07/24 21:39:45;;;;;;;5.05;2.42;;;;;;;24.59;34.96;100027.50;4434795;32;32243;-79
2022/07/24 21:42:12;;;;;;;5.60;2.50;;;;;;;24.34;34.95;100034.75;4433195;32;34879;-79
2022/07/24 21:44:40;;;;;;;5.53;2.85;;;;;;;24.49;34.43;100029.34;4429745;32;33744;-78
2022/07/24 21:47:07;;;;;;;4.82;2.58;;;;;;;24.53;34.56;100033.75;4434975;32;33620;-79
2022/07/24 21:49:35;;;;;;;5.62;2.37;;;;;;;24.60;34.28;100036.31;4430876;32;32999;-80
2022/07/24 21:52:03;;;;;;;3.83;2.10;;;;;;;24.46;34.32;100037.28;4433656;32;34069;-79
2022/07/24 21:54:31;;;;;;;4.80;2.47;;;;;;;24.52;34.30;100037.25;4427860;32;33951;-80
2022/07/24 21:56:58;;;;;;;6.20;2.78;;;;;;;24.36;34.64;100046.22;4430814;32;33970;-80
2022/07/24 21:59:25;;;;;;;5.80;2.70;;;;;;;24.47;35.37;100039.06;4415562;32;33423;-80
2022/07/24 22:01:53;;;;;;;3.83;2.40;;;;;;;24.62;35.82;100047.78;4432920;32;34082;-81
2022/07/24 22:04:21;;;;;;;3.92;2.42;;;;;;;24.41;35.89;100041.72;4413819;32;32356;-79
2022/07/24 22:06:56;;;;;;;8.35;2.95;;;;;;;23.67;40.69;100051.88;4431316;32;33297;-78
2022/07/24 22:09:24;;;;;;;6.32;2.72;;;;;;;23.55;38.19;100051.06;4433534;32;34020;-78
2022/07/24 22:11:58;;;;;;;6.30;2.83;;;;;;;23.52;38.53;100050.19;4437257;32;34816;-78
2022/07/24 22:14:26;;;;;;;4.68;2.67;;;;;;;22.95;39.09;100053.84;4435268;32;34830;-78
2022/07/24 22:16:54;;;;;;;4.20;2.53;;;;;;;22.74;39.84;100054.75;4421477;32;33784;-78
2022/07/24 22:19:21;;;;;;;6.05;2.47;;;;;;;22.74;39.68;100061.81;4418523;32;31834;-79
2022/07/24 22:21:49;;;;;;;4.47;2.97;;;;;;;22.68;39.58;100064.44;4416430;32;34125;-79
2022/07/24 22:24:17;;;;;;;6.05;3.00;;;;;;;22.50;39.92;100060.94;4416166;32;32467;-78
2022/07/24 22:26:45;;;;;;;5.55;2.67;;;;;;;22.53;39.95;100060.91;4405264;32;34128;-78
2022/07/24 22:29:12;;;;;;;5.75;2.70;;;;;;;22.88;39.07;100070.56;4422823;32;34137;-78
2022/07/24 22:31:40;;;;;;;4.78;2.67;;;;;;;23.01;38.05;100068.81;4427020;32;34519;-81
2022/07/24 22:34:08;;;;;;;4.43;2.70;;;;;;;23.06;38.59;100077.63;4421573;32;33693;-79
2022/07/24 22:36:38;;;;;;;5.65;2.90;;;;;;;23.35;37.71;100074.94;4422646;32;33362;-80
2022/07/24 22:39:07;;;;;;;4.10;2.58;;;;;;;23.26;37.85;100068.78;4405275;32;31803;-79
2022/07/24 22:41:34;;;;;;;5.65;3.10;;;;;;;23.67;37.23;100071.28;4431796;32;33260;-80
2022/07/24 22:44:02;;;;;;;5.32;2.80;;;;;;;23.69;36.76;100069.50;4434263;32;34726;-79
2022/07/24 22:46:33;;;;;;;4.35;2.70;;;;;;;23.67;36.83;100078.34;4429888;32;33944;-80
2022/07/24 22:49:01;;;;;;;4.95;2.50;;;;;;;23.81;36.62;100075.66;4427120;32;33294;-80
2022/07/24 22:51:34;;;;;;;5.97;2.90;;;;;;;23.34;38.50;100073.16;4431527;32;34002;-80
2022/07/24 22:54:02;;;;;;;7.90;3.08;;;;;;;23.49;38.64;100082.81;4422681;32;34343;-82
2022/07/24 22:56:30;;;;;;;4.80;3.03;;;;;;;22.92;40.05;100072.31;4428800;32;35201;-76
2022/07/24 22:58:58;;;;;;;5.25;2.97;;;;;;;22.70;40.21;100083.81;4421770;32;33541;-78
2022/07/24 23:01:26;;;;;;;5.53;3.12;;;;;;;22.54;40.63;100082.91;4419852;32;33721;-77
2022/07/24 23:03:54;;;;;;;6.53;3.28;;;;;;;22.47;39.95;100076.75;4431654;32;32592;-78
2022/07/24 23:06:22;;;;;;;6.07;3.03;;;;;;;22.28;40.78;100077.63;4432777;32;33860;-78
2022/07/24 23:08:49;;;;;;;6.65;3.92;;;;;;;22.47;41.37;100071.47;4434290;32;33352;-80
2022/07/24 23:11:17;;;;;;;7.07;4.30;;;;;;;23.26;41.85;100061.72;4432703;32;33834;-80
2022/07/24 23:13:44;;;;;;;7.57;3.80;;;;;;;23.71;42.22;100067.72;4431076;32;33754;-80
2022/07/24 23:16:12;;;;;;;7.90;4.30;;;;;;;23.68;42.17;100067.75;4429854;32;33488;-80
2022/07/24 23:18:41;;;;;;;6.43;4.28;;;;;;;23.89;41.52;100073.84;4419584;32;34224;-80
2022/07/24 23:21:09;;;;;;;5.25;3.55;;;;;;;23.26;42.96;100069.66;4435600;32;34525;-80
2022/07/24 23:23:36;;;;;;;7.60;3.78;;;;;;;23.08;43.28;100074.97;4428697;32;34687;-80
2022/07/24 23:26:04;;;;;;;8.35;4.20;;;;;;;23.94;41.81;100074.72;4432342;32;34104;-80
2022/07/24 23:28:31;;;;;;;7.10;4.30;;;;;;;24.10;41.58;100076.34;4431378;32;33236;-80
2022/07/24 23:30:59;;;;;;;6.22;4.20;;;;;;;24.33;41.45;100080.63;4432626;32;34723;-80
2022/07/24 23:33:27;;;;;;;6.97;4.32;;;;;;;24.05;41.46;100077.28;4437888;32;33508;-80
2022/07/24 23:35:54;;;;;;;14.65;4.30;;;;;;;23.78;42.12;100078.28;4410500;32;33282;-80
2022/07/24 23:38:22;;;;;;;8.23;4.47;;;;;;;24.00;41.55;100074.66;4410389;32;33799;-80
2022/07/24 23:40:49;;;;;;;6.20;4.20;;;;;;;24.25;41.18;100063.94;4408442;32;33873;-80
2022/07/24 23:43:17;;;;;;;5.93;3.60;;;;;;;23.93;41.51;100067.63;4428227;32;34868;-80
2022/07/24 23:45:44;;;;;;;6.15;4.18;;;;;;;23.48;43.11;100066.94;4422277;32;34661;-80
2022/07/24 23:48:12;;;;;;;6.20;4.15;;;;;;;23.71;42.56;100067.72;4433740;32;34171;-80
2022/07/24 23:50:40;;;;;;;6.45;3.58;;;;;;;23.38;43.54;100074.03;4430435;32;33811;-80
2022/07/24 23:53:07;;;;;;;6.12;4.05;;;;;;;23.07;43.97;100067.94;4432196;32;34123;-80
2022/07/24 23:55:35;;;;;;;10.98;4.25;;;;;;;23.46;43.66;100066.94;4419940;32;33638;-80
2022/07/24 23:58:03;;;;;;;6.60;3.95;;;;;;;23.85;42.73;100066.81;4431587;32;33095;-79
